Airfield :
LOGIN :

Register | Disclaimer

   EN    FR    IT 

 










Legend :    VFR   Marginal VFR   IFR   Intensive IFR   Very Intensive IFR
Visi :
Ceiling :
>= 8 km
>= 3000ft
5 to 8 km
1000 to 3000 ft
1500m to 5 km
500 to 1000 ft
800 to 1500m
200 to 500 ft
< 800m
< 200 ft
Symbols :   Thunderstorms  Fog  Heavy snow  Heavy precipitations  Wind > 20 kt
SIGMETs :     Misc.  Thunderstorms  Icing  Turbulence  Mountain Waves  Volcanic Ashes






- Airport Elevation : 580 ft


LFOA - Avord

CURRENT METAR :
  • 230800Z AUTO 26005KT 210V300 9999 BKN010/// BKN016/// BKN032/// 15/13 Q1018

EXPIRED METARs :
  • 230730Z AUTO 24004KT 9999 BKN008/// BKN029/// BKN035/// ///TCU 13/12 Q1018
  • 230700Z AUTO 25007KT 9999 OVC007 13/12 Q1018
  • 230630Z AUTO 27006KT 9999 BKN005 OVC009 13/12 Q1018
  • 230600Z AUTO 27006KT 9999 BKN005 OVC030 12/12 Q1018 NOSIG
  • 230530Z AUTO 25004KT 220V280 9999 BKN005 BKN035 OVC054 12/12 Q1017 NOSIG
  • 230500Z AUTO 21004KT 9999 BKN006 BKN033 BKN058 11/11 Q1017 NOSIG
  • 230430Z AUTO 22004KT 9999 BKN007/// BKN027/// BKN078/// ///TCU 11/10 Q1017 TEMPO BKN005
  • 230400Z AUTO 23005KT 9999 BKN007 BKN027 BKN047 11/11 Q1017 NOSIG
  • 230330Z AUTO 23004KT 9999 BKN008 BKN048 BKN056 12/11 Q1017

TAF AMD TAF LFOA
Valid from the 23 at 03:00 until the 24 at 03:00 UTC


230335Z 2303/2403 22005KT 9999 SCT030 BKN060 TX18/2314Z TN11/2305Z
TEMPO 2303/2308 BKN005
TEMPO 2308/2310 BKN012
TEMPO 2310/2322 4000 SHRA BKN020CB
PROB40
TEMPO 2311/2320 VRB15G25KT 2000 TSRA BKN025CB



MET'MAP, your aeronautical weather chart ! - Copyright ORBIFLY December 2007 - Disclaimer

ORBIFLY MET'MAP TEAM :

Programming & Development : Alexandra Zaïnal
Original concept : Baudouin d'Aumeries
Technical & hardware support : Manuel Goepfert
Assistance : Marc-Olivier Méhu




SOURCES & CREDITS :

   NOAA